Главная страница
METAR-TAF:

METAR-TAF

Аэропорты :

Turaif, Саудовская Аравия

широта: 31-41N, долгота: 038-44E, высота над уровнем моря: 813 м

Текущие метеонаблюдения

Эта сводка был подготовлена 24 минут назад, в 20:00 UTC
Ветер 10 Узел от северо-западный
Температура 25°C
Влажность 36%
Давление 1012 hPa
Видимость 10 км и более
Нет облачности ниже 1500 м, и нет кучево-дождевой облачности

METAR: OETR 172000Z 31010KT CAVOK 25/09 Q1012 NOSIG

Время: 23:24 (20:24 UTC)

Прогноз

Эта сводка был подготовлена 9 часа и 24 минут назад, в 11:00 UTC
Прогноз действительный с 17-го 12 UTC до 18-го 18 UTC
Ветер 15 Узел от северно-северо-западный
Видимость 10 км и более
Нет облачности ниже 1500 м, и нет кучево-дождевой облачности
изменения
С 17-го 21 UTC до 17-го 23 UTC
Ветер 10 Узел от северо-северо-восточный

TAF: OETR 171100Z 1712/1818 33015KT CAVOK BECMG 1721/1723 02010KT

Метеонаблюдения и прогнозы для более 4000 аэропортов (сводки METAR и TAF).

Имеющиеся станции представлены на карте желтыми и красными точками.

Чтобы увидеть название станции, наведите на нее мышь.

Затем щелкните, чтобы увидеть метеонаблюдения и метеопрогнозы.

Управление картой: чтобы увеличить масштаб, щелкните зеленые кнопки с черным крестиком; чтобы уменьшить масштаб, щелкните зеленую кнопку с тире; для просмотра соседних карт щелкайте зеленые стрелки.


METAR-TAF: